Jpo Gemini — A8VF7 — position and weather

sailwx.info

Track history (hours):
 
Tides and Currents Weather Stations Pressure Air Temp Water Temp Dewpoint Dewpoint Depression Visibility Wind Speed Wind Dir Waves Ship Positions

Jpo Gemini

Last reported at 2015-Jul-30 00:00 UTC. Time now 2015-Jul-30 08:18 UTC.
Position N 22°18' W 017°18'.

Length 207 m; draft 10.7 m.

Type: Ship. MMSI: 636091995.

Wind from 020 at 21 knots

Waves 2.0 meters (7 feet), 10 second period

Barometer 1016.0 mb
Air temperature 21.0 ° C
Visibility: greater than 5.4 NM
Dewpoint 16.0 ° C
Water temperature 25.0 ° C

Date/timePositionNaut miles runAvg speedWind from/ knotsBaromVisibWave heightAir tempDewpointWater temp
2015-Jul-30 00:00N 22°18' W 017°18'29212.2 020 / 211016.0 5.4 2.021.016.025.0
2015-Jul-29 00:06N 26°33' W 014°42'711.8
2015-Jul-28 23:33N 26°38' W 014°38'1311.5
2015-Jul-28 22:25N 26°49' W 014°30'1011.6
2015-Jul-28 21:31N 26°58' W 014°24'1111.0
2015-Jul-28 20:33N 27°07' W 014°17'1211.1
2015-Jul-28 19:26N 27°17' W 014°10'1011.4
2015-Jul-28 18:33N 27°26' W 014°04'1211.6
2015-Jul-28 17:33N 27°36' W 013°57'1211.9
2015-Jul-28 16:33N 27°46' W 013°50'1212.1
2015-Jul-28 15:33N 27°56' W 013°42'1212.2
2015-Jul-28 14:33N 28°06' W 013°34'1212.1
2015-Jul-28 13:33N 28°16' W 013°27'1212.4
2015-Jul-28 12:33N 28°26' W 013°18'1212.3
2015-Jul-28 11:33N 28°36' W 013°10'1212.1
2015-Jul-28 10:33N 28°45' W 013°02'1513.8
2015-Jul-28 09:30N 28°57' W 012°52'1212.2
2015-Jul-28 08:33N 29°07' W 012°45'1212.4
2015-Jul-28 07:33N 29°17' W 012°37'1212.4
2015-Jul-28 06:33N 29°27' W 012°28'1512.2
2015-Jul-28 05:17N 29°40' W 012°18'3612.4
2015-Jul-28 02:23N 30°09' W 011°54'1212.6
2015-Jul-28 01:26N 30°18' W 011°46'1112.5
2015-Jul-28 00:33N 30°27' W 011°38'1312.7
2015-Jul-27 23:33N 30°38' W 011°30'1212.5
2015-Jul-27 22:33N 30°48' W 011°22'1312.5
2015-Jul-27 21:33N 30°58' W 011°13'1312.8
2015-Jul-27 20:33N 31°09' W 011°04'1312.8
2015-Jul-27 19:34N 31°19' W 010°56'1312.9
2015-Jul-27 18:33N 31°29' W 010°47'1312.9
2015-Jul-27 17:33N 31°40' W 010°38'1312.9
2015-Jul-27 16:33N 31°50' W 010°29'1312.7
2015-Jul-27 15:33N 32°01' W 010°21'1312.6
2015-Jul-27 14:33N 32°11' W 010°12'1312.5
2015-Jul-27 13:31N 32°22' W 010°03'1212.8
2015-Jul-27 12:33N 32°31' W 009°54'1312.6
2015-Jul-27 11:31N 32°41' W 009°44'7612.7
2015-Jul-27 05:33N 33°40' W 008°47'1312.6
2015-Jul-27 04:30N 33°50' W 008°37'1212.4
2015-Jul-27 03:33N 33°59' W 008°28'1312.6
2015-Jul-27 02:33N 34°09' W 008°19'1212.4
2015-Jul-27 01:33N 34°19' W 008°09'1712.3
2015-Jul-27 00:11N 34°32' W 007°56'313.1
2015-Jul-27 00:00N 34°30' W 007°54'818.3 180 / 101019.0 5.4 1.023.018.324.0
2015-Jul-26 23:33N 34°37' W 007°50'1212.4
2015-Jul-26 22:33N 34°45' W 007°38'2712.5
2015-Jul-26 20:23N 35°02' W 007°13'1012.6
2015-Jul-26 19:33N 35°09' W 007°03'1312.5
2015-Jul-26 18:33N 35°17' W 006°51'1212.3
2015-Jul-26 17:33N 35°25' W 006°39'1412.0
2015-Jul-26 16:25N 35°34' W 006°27'  
2015-Jul-23 05:06N 36°02' W 006°12'5 0.2
2015-Jul-22 06:09N 36°06' W 006°17'0 0.0
2015-Jul-20 13:27N 36°05' W 006°17'  
Track history (hours):
 
Tides and Currents Weather Stations Pressure Air Temp Water Temp Dewpoint Dewpoint Depression Visibility Wind Speed Wind Dir Waves Ship Positions

Jpo Gemini

Last reported at 2015-Jul-30 00:00 UTC. Time now 2015-Jul-30 08:18 UTC.
Position N 22°18' W 017°18'.

Length 207 m; draft 10.7 m.

Type: Ship. MMSI: 636091995.

Wind from 020 at 21 knots

Waves 2.0 meters (7 feet), 10 second period

Barometer 1016.0 mb
Air temperature 21.0 ° C
Visibility: greater than 5.4 NM
Dewpoint 16.0 ° C
Water temperature 25.0 ° C

Date/timePositionNaut miles runAvg speedWind from/ knotsBaromVisibWave heightAir tempDewpointWater temp
2015-Jul-30 00:00N 22°18' W 017°18'29212.2 020 / 211016.0 5.4 2.021.016.025.0
2015-Jul-29 00:06N 26°33' W 014°42'711.8
2015-Jul-28 23:33N 26°38' W 014°38'1311.5
2015-Jul-28 22:25N 26°49' W 014°30'1011.6
2015-Jul-28 21:31N 26°58' W 014°24'1111.0
2015-Jul-28 20:33N 27°07' W 014°17'1211.1
2015-Jul-28 19:26N 27°17' W 014°10'1011.4
2015-Jul-28 18:33N 27°26' W 014°04'1211.6
2015-Jul-28 17:33N 27°36' W 013°57'1211.9
2015-Jul-28 16:33N 27°46' W 013°50'1212.1
2015-Jul-28 15:33N 27°56' W 013°42'1212.2
2015-Jul-28 14:33N 28°06' W 013°34'1212.1
2015-Jul-28 13:33N 28°16' W 013°27'1212.4
2015-Jul-28 12:33N 28°26' W 013°18'1212.3
2015-Jul-28 11:33N 28°36' W 013°10'1212.1
2015-Jul-28 10:33N 28°45' W 013°02'1513.8
2015-Jul-28 09:30N 28°57' W 012°52'1212.2
2015-Jul-28 08:33N 29°07' W 012°45'1212.4
2015-Jul-28 07:33N 29°17' W 012°37'1212.4
2015-Jul-28 06:33N 29°27' W 012°28'1512.2
2015-Jul-28 05:17N 29°40' W 012°18'3612.4
2015-Jul-28 02:23N 30°09' W 011°54'1212.6
2015-Jul-28 01:26N 30°18' W 011°46'1112.5
2015-Jul-28 00:33N 30°27' W 011°38'1312.7
2015-Jul-27 23:33N 30°38' W 011°30'1212.5
2015-Jul-27 22:33N 30°48' W 011°22'1312.5
2015-Jul-27 21:33N 30°58' W 011°13'1312.8
2015-Jul-27 20:33N 31°09' W 011°04'1312.8
2015-Jul-27 19:34N 31°19' W 010°56'1312.9
2015-Jul-27 18:33N 31°29' W 010°47'1312.9
2015-Jul-27 17:33N 31°40' W 010°38'1312.9
2015-Jul-27 16:33N 31°50' W 010°29'1312.7
2015-Jul-27 15:33N 32°01' W 010°21'1312.6
2015-Jul-27 14:33N 32°11' W 010°12'1312.5
2015-Jul-27 13:31N 32°22' W 010°03'1212.8
2015-Jul-27 12:33N 32°31' W 009°54'1312.6
2015-Jul-27 11:31N 32°41' W 009°44'7612.7
2015-Jul-27 05:33N 33°40' W 008°47'1312.6
2015-Jul-27 04:30N 33°50' W 008°37'1212.4
2015-Jul-27 03:33N 33°59' W 008°28'1312.6
2015-Jul-27 02:33N 34°09' W 008°19'1212.4
2015-Jul-27 01:33N 34°19' W 008°09'1712.3
2015-Jul-27 00:11N 34°32' W 007°56'313.1
2015-Jul-27 00:00N 34°30' W 007°54'818.3 180 / 101019.0 5.4 1.023.018.324.0
2015-Jul-26 23:33N 34°37' W 007°50'1212.4
2015-Jul-26 22:33N 34°45' W 007°38'2712.5
2015-Jul-26 20:23N 35°02' W 007°13'1012.6
2015-Jul-26 19:33N 35°09' W 007°03'1312.5
2015-Jul-26 18:33N 35°17' W 006°51'1212.3
2015-Jul-26 17:33N 35°25' W 006°39'1412.0
2015-Jul-26 16:25N 35°34' W 006°27'  
2015-Jul-23 05:06N 36°02' W 006°12'5 0.2
2015-Jul-22 06:09N 36°06' W 006°17'0 0.0
2015-Jul-20 13:27N 36°05' W 006°17'  

Dump ship's entire track history